| time (UTC) | temp C | wind direction | speed KPH | gust KPH | rain 1hr cm | rain 24hr cm | rain mn cm | humidity % | barometer mb |
| 20260510061052 | 13 | 86 | 0.0 | 8.0 | 0.00 | 0.00 | 0.00 | 69 | 1019.2 |
| 20260510060554 | 13 | 77 | 0.0 | 8.0 | 0.00 | 0.00 | 0.00 | 70 | 1019.3 |
| 20260510060059 | 13 | 84 | 1.6 | 8.0 | 0.00 | 0.00 | 0.00 | 69 | 1019.2 |
| 20260510055552 | 12 | 333 | 0.0 | 4.8 | 0.00 | 0.00 | 0.00 | 70 | 1019.3 |
| 20260510055052 | 12 | 0 | 0.0 | 6.4 | 0.00 | 0.00 | 0.00 | 72 | 1019.3 |
| 20260510054601 | 11 | 79 | 0.0 | 6.4 | 0.00 | 0.00 | 0.00 | 74 | 1019.1 |
| 20260510054051 | 10 | 0 | 1.6 | 6.4 | 0.00 | 0.00 | 0.00 | 76 | 1019.2 |
| 20260510053550 | 10 | 53 | 1.6 | 6.4 | 0.00 | 0.00 | 0.00 | 78 | 1019.2 |
| 20260510053054 | 9 | 0 | 0.0 | 4.8 | 0.00 | 0.00 | 0.00 | 79 | 1019.4 |
| 20260510052553 | 8 | 0 | 0.0 | 4.8 | 0.00 | 0.00 | 0.00 | 80 | 1019.5 |
| 20260510052054 | 8 | 0 | 0.0 | 1.6 | 0.00 | 0.00 | 0.00 | 82 | 1019.5 |
| 20260510051557 | 7 | 0 | 0.0 | 1.6 | 0.00 | 0.00 | 0.00 | 84 | 1019.5 |
| 20260510051052 | 7 | 0 | 0.0 | 0.0 | 0.00 | 0.00 | 0.00 | 85 | 1019.5 |
| 20260510050552 | 7 | 0 | 0.0 | 0.0 | 0.00 | 0.00 | 0.00 | 85 | 1019.4 |
| 20260510050056 | 7 | 0 | 0.0 | 0.0 | 0.00 | 0.00 | 0.00 | 85 | 1019.4 |
| 20260510045553 | 7 | 0 | 0.0 | 0.0 | 0.00 | 0.00 | 0.00 | 85 | 1019.3 |
| 20260510045052 | 7 | 0 | 0.0 | 0.0 | 0.00 | 0.00 | 0.00 | 85 | 1019.3 |
| 20260510044558 | 7 | 0 | 0.0 | 0.0 | 0.00 | 0.00 | 0.00 | 85 | 1019.2 |
| 20260510044051 | 7 | 0 | 0.0 | 0.0 | 0.00 | 0.00 | 0.00 | 86 | 1019.1 |
| 20260510043551 | 7 | 0 | 0.0 | 0.0 | 0.00 | 0.00 | 0.00 | 86 | 1019.1 |
| 20260510043105 | 7 | 0 | 0.0 | 0.0 | 0.00 | 0.00 | 0.00 | 85 | 1019.0 |
| 20260510042549 | 7 | 0 | 0.0 | 0.0 | 0.00 | 0.00 | 0.00 | 86 | 1018.8 |
| 20260510042048 | 7 | 0 | 0.0 | 0.0 | 0.00 | 0.00 | 0.00 | 85 | 1018.9 |
| 20260510041555 | 7 | 0 | 0.0 | 0.0 | 0.00 | 0.00 | 0.00 | 85 | 1019.0 |
| 20260510041048 | 7 | 0 | 0.0 | 0.0 | 0.00 | 0.00 | 0.00 | 86 | 1019.1 |
| 20260510040550 | 7 | 0 | 0.0 | 0.0 | 0.00 | 0.00 | 0.00 | 86 | 1019.0 |
| 20260510035548 | 7 | 0 | 0.0 | 0.0 | 0.00 | 0.00 | 0.00 | 86 | 1018.8 |
| 20260510035049 | 7 | 0 | 0.0 | 0.0 | 0.00 | 0.00 | 0.00 | 86 | 1019.0 |
| 20260510034554 | 7 | 0 | 0.0 | 0.0 | 0.00 | 0.00 | 0.00 | 86 | 1018.9 |
| 20260510034049 | 7 | 0 | 0.0 | 0.0 | 0.00 | 0.00 | 0.00 | 86 | 1018.9 |
| 20260510033548 | 7 | 0 | 0.0 | 0.0 | 0.00 | 0.00 | 0.00 | 86 | 1018.9 |
| 20260510033054 | 7 | 0 | 0.0 | 0.0 | 0.00 | 0.00 | 0.00 | 86 | 1018.9 |
| 20260510032549 | 7 | 0 | 0.0 | 0.0 | 0.00 | 0.00 | 0.00 | 86 | 1018.8 |
| 20260510032048 | 7 | 0 | 0.0 | 0.0 | 0.00 | 0.00 | 0.00 | 86 | 1018.8 |
| 20260510031558 | 7 | 0 | 0.0 | 0.0 | 0.00 | 0.00 | 0.00 | 86 | 1018.8 |
| 20260510031050 | 7 | 0 | 0.0 | 0.0 | 0.00 | 0.00 | 0.00 | 86 | 1018.8 |
| 20260510030550 | 7 | 0 | 0.0 | 0.0 | 0.00 | 0.00 | 0.00 | 86 | 1018.8 |
| 20260510030059 | 7 | 0 | 0.0 | 0.0 | 0.00 | 0.00 | 0.00 | 86 | 1018.9 |
| 20260510025551 | 7 | 0 | 0.0 | 0.0 | 0.00 | 0.00 | 0.00 | 85 | 1018.9 |
| 20260510025049 | 7 | 0 | 0.0 | 0.0 | 0.00 | 0.00 | 0.00 | 85 | 1018.8 |
| 20260510024555 | 7 | 0 | 0.0 | 0.0 | 0.00 | 0.00 | 0.00 | 85 | 1018.8 |
| 20260510024048 | 7 | 0 | 0.0 | 0.0 | 0.00 | 0.00 | 0.00 | 85 | 1018.9 |
| 20260510023550 | 7 | 0 | 0.0 | 0.0 | 0.00 | 0.00 | 0.00 | 85 | 1018.9 |
| 20260510023057 | 7 | 0 | 0.0 | 0.0 | 0.00 | 0.00 | 0.00 | 84 | 1018.9 |
| 20260510022549 | 7 | 0 | 0.0 | 0.0 | 0.00 | 0.00 | 0.00 | 84 | 1018.8 |
| 20260510022047 | 7 | 0 | 0.0 | 0.0 | 0.00 | 0.00 | 0.00 | 84 | 1018.8 |
| 20260510021603 | 7 | 0 | 0.0 | 0.0 | 0.00 | 0.00 | 0.00 | 84 | 1018.8 |
| 20260510021048 | 7 | 0 | 0.0 | 0.0 | 0.00 | 0.00 | 0.00 | 83 | 1018.8 |
| 20260510020551 | 7 | 0 | 0.0 | 0.0 | 0.00 | 0.00 | 0.00 | 83 | 1019.0 |
| 20260510020059 | 7 | 0 | 0.0 | 0.0 | 0.00 | 0.00 | 0.00 | 83 | 1018.9 |
| 20260510015548 | 7 | 0 | 0.0 | 0.0 | 0.00 | 0.00 | 0.00 | 82 | 1019.0 |
| 20260510015048 | 8 | 0 | 0.0 | 0.0 | 0.00 | 0.00 | 0.00 | 82 | 1019.0 |
| 20260510014559 | 8 | 0 | 0.0 | 0.0 | 0.00 | 0.00 | 0.00 | 82 | 1018.9 |
| 20260510014052 | 8 | 0 | 0.0 | 0.0 | 0.00 | 0.00 | 0.00 | 82 | 1019.0 |
| 20260510013556 | 8 | 0 | 0.0 | 1.6 | 0.00 | 0.00 | 0.00 | 82 | 1019.0 |
| 20260510013051 | 8 | 0 | 0.0 | 1.6 | 0.00 | 0.00 | 0.00 | 82 | 1019.1 |
| 20260510012552 | 8 | 0 | 0.0 | 0.0 | 0.00 | 0.00 | 0.00 | 82 | 1019.1 |
| 20260510012052 | 8 | 0 | 0.0 | 0.0 | 0.00 | 0.00 | 0.00 | 81 | 1019.0 |
| 20260510011555 | 8 | 0 | 0.0 | 0.0 | 0.00 | 0.00 | 0.00 | 81 | 1019.1 |
| 20260510011053 | 8 | 0 | 0.0 | 0.0 | 0.00 | 0.00 | 0.00 | 82 | 1019.1 |
| 20260510010553 | 8 | 0 | 0.0 | 0.0 | 0.00 | 0.00 | 0.00 | 81 | 1019.1 |
| 20260510010051 | 8 | 0 | 0.0 | 0.0 | 0.00 | 0.00 | 0.00 | 81 | 1019.2 |
| 20260510005553 | 8 | 0 | 0.0 | 0.0 | 0.00 | 0.00 | 0.00 | 81 | 1019.1 |
| 20260510005052 | 8 | 0 | 0.0 | 0.0 | 0.00 | 0.00 | 0.00 | 81 | 1019.2 |
| 20260510004552 | 8 | 0 | 0.0 | 0.0 | 0.00 | 0.00 | 0.00 | 81 | 1019.2 |
| 20260510004057 | 8 | 0 | 0.0 | 0.0 | 0.00 | 0.00 | 0.00 | 81 | 1019.1 |
| 20260510003554 | 8 | 0 | 0.0 | 0.0 | 0.00 | 0.00 | 0.00 | 80 | 1019.1 |
| 20260510003057 | 8 | 0 | 0.0 | 0.0 | 0.00 | 0.00 | 0.00 | 80 | 1019.2 |
| 20260510002551 | 8 | 0 | 0.0 | 0.0 | 0.00 | 0.00 | 0.00 | 80 | 1019.2 |
| 20260510002051 | 8 | 0 | 0.0 | 0.0 | 0.00 | 0.00 | 0.00 | 80 | 1019.3 |
| 20260510001554 | 8 | 0 | 0.0 | 0.0 | 0.00 | 0.00 | 0.00 | 80 | 1019.3 |
| 20260510001051 | 8 | 0 | 0.0 | 0.0 | 0.00 | 0.00 | 0.00 | 81 | 1019.2 |
| 20260510000552 | 8 | 0 | 0.0 | 0.0 | 0.00 | 0.00 | 0.00 | 81 | 1019.3 |
| 20260510000059 | 8 | 0 | 0.0 | 0.0 | 0.00 | 0.00 | 0.00 | 80 | 1019.3 |
| 20260509235553 | 8 | 0 | 0.0 | 0.0 | 0.00 | 0.00 | 0.00 | 80 | 1019.3 |
| 20260509235053 | 8 | 0 | 0.0 | 0.0 | 0.00 | 0.00 | 0.00 | 80 | 1019.3 |
| 20260509234552 | 8 | 0 | 0.0 | 0.0 | 0.00 | 0.00 | 0.00 | 79 | 1019.4 |
| 20260509234053 | 8 | 0 | 0.0 | 0.0 | 0.00 | 0.00 | 0.00 | 79 | 1019.5 |
| 20260509233555 | 8 | 0 | 0.0 | 0.0 | 0.00 | 0.00 | 0.00 | 79 | 1019.5 |
| 20260509233057 | 8 | 0 | 0.0 | 0.0 | 0.00 | 0.00 | 0.00 | 79 | 1019.5 |
| 20260509232555 | 8 | 0 | 0.0 | 0.0 | 0.00 | 0.00 | 0.00 | 78 | 1019.5 |
| 20260509232053 | 8 | 0 | 0.0 | 0.0 | 0.00 | 0.00 | 0.00 | 78 | 1019.5 |
| 20260509231554 | 8 | 0 | 0.0 | 0.0 | 0.00 | 0.00 | 0.00 | 78 | 1019.5 |
| 20260509231052 | 8 | 0 | 0.0 | 0.0 | 0.00 | 0.00 | 0.00 | 77 | 1019.6 |
| 20260509230555 | 9 | 0 | 0.0 | 0.0 | 0.00 | 0.00 | 0.00 | 77 | 1019.6 |
| 20260509230056 | 9 | 0 | 0.0 | 0.0 | 0.00 | 0.00 | 0.00 | 77 | 1019.7 |
| 20260509225552 | 9 | 0 | 0.0 | 0.0 | 0.00 | 0.00 | 0.00 | 76 | 1019.6 |
| 20260509225050 | 9 | 0 | 0.0 | 0.0 | 0.00 | 0.00 | 0.00 | 76 | 1019.6 |
| 20260509224601 | 9 | 0 | 0.0 | 0.0 | 0.00 | 0.00 | 0.00 | 75 | 1019.7 |
| 20260509224050 | 9 | 0 | 0.0 | 0.0 | 0.00 | 0.00 | 0.00 | 76 | 1019.7 |
| 20260509223554 | 9 | 0 | 0.0 | 0.0 | 0.00 | 0.00 | 0.00 | 76 | 1019.7 |
| 20260509223059 | 9 | 0 | 0.0 | 0.0 | 0.00 | 0.00 | 0.00 | 75 | 1019.7 |
| 20260509222557 | 10 | 0 | 0.0 | 0.0 | 0.00 | 0.00 | 0.00 | 75 | 1019.8 |
| 20260509222054 | 10 | 0 | 0.0 | 3.2 | 0.00 | 0.00 | 0.00 | 75 | 1019.8 |
| 20260509221605 | 10 | 0 | 0.0 | 3.2 | 0.00 | 0.00 | 0.00 | 74 | 1019.9 |
| 20260509221053 | 10 | 0 | 0.0 | 3.2 | 0.00 | 0.00 | 0.00 | 74 | 1019.8 |
| 20260509220555 | 10 | 0 | 0.0 | 1.6 | 0.00 | 0.00 | 0.00 | 75 | 1019.9 |
| 20260509220052 | 10 | 0 | 0.0 | 1.6 | 0.00 | 0.00 | 0.00 | 74 | 1019.8 |
| 20260509215553 | 10 | 0 | 0.0 | 0.0 | 0.00 | 0.00 | 0.00 | 75 | 1019.8 |
| 20260509215053 | 10 | 0 | 0.0 | 0.0 | 0.00 | 0.00 | 0.00 | 76 | 1020.0 |
| 20260509214558 | 10 | 0 | 0.0 | 0.0 | 0.00 | 0.00 | 0.00 | 76 | 1020.1 |
| 20260509214055 | 10 | 0 | 0.0 | 0.0 | 0.00 | 0.00 | 0.00 | 76 | 1020.2 |
| 20260509213555 | 10 | 0 | 0.0 | 0.0 | 0.00 | 0.00 | 0.00 | 76 | 1020.2 |
| 20260509213053 | 10 | 0 | 0.0 | 0.0 | 0.00 | 0.00 | 0.00 | 75 | 1020.2 |
| 20260509212552 | 10 | 0 | 0.0 | 0.0 | 0.00 | 0.00 | 0.00 | 75 | 1020.3 |
| 20260509212059 | 10 | 0 | 0.0 | 0.0 | 0.00 | 0.00 | 0.00 | 75 | 1020.2 |
| 20260509211558 | 10 | 0 | 0.0 | 0.0 | 0.00 | 0.00 | 0.00 | 75 | 1020.4 |
| 20260509211052 | 10 | 0 | 0.0 | 1.6 | 0.00 | 0.00 | 0.00 | 74 | 1020.4 |
| 20260509210552 | 10 | 0 | 0.0 | 1.6 | 0.00 | 0.00 | 0.00 | 74 | 1020.4 |
| 20260509210114 | 10 | 0 | 0.0 | 1.6 | 0.00 | 0.00 | 0.00 | 73 | 1020.5 |
| 20260509205553 | 11 | 0 | 0.0 | 1.6 | 0.00 | 0.00 | 0.00 | 74 | 1020.5 |
| 20260509205053 | 11 | 0 | 0.0 | 1.6 | 0.00 | 0.00 | 0.00 | 72 | 1020.4 |
| 20260509204559 | 11 | 0 | 0.0 | 1.6 | 0.00 | 0.00 | 0.00 | 72 | 1020.4 |
| 20260509204053 | 11 | 0 | 0.0 | 1.6 | 0.00 | 0.00 | 0.00 | 70 | 1020.4 |
| 20260509203552 | 12 | 0 | 0.0 | 3.2 | 0.00 | 0.00 | 0.00 | 70 | 1020.5 |
| 20260509203056 | 12 | 73 | 0.0 | 4.8 | 0.00 | 0.00 | 0.00 | 68 | 1020.4 |
| 20260509202553 | 12 | 0 | 0.0 | 8.0 | 0.00 | 0.00 | 0.00 | 68 | 1020.4 |
| 20260509202052 | 12 | 61 | 0.0 | 8.0 | 0.00 | 0.00 | 0.00 | 68 | 1020.4 |
| 20260509201603 | 12 | 73 | 0.0 | 8.0 | 0.00 | 0.00 | 0.00 | 68 | 1020.6 |
| 20260509201052 | 12 | 98 | 0.0 | 6.4 | 0.00 | 0.00 | 0.00 | 68 | 1020.5 |
| 20260509200552 | 12 | 96 | 0.0 | 6.4 | 0.00 | 0.00 | 0.00 | 68 | 1020.6 |
| 20260509200103 | 12 | 90 | 0.0 | 3.2 | 0.00 | 0.00 | 0.00 | 70 | 1020.6 |
| 20260509195552 | 12 | 0 | 0.0 | 3.2 | 0.00 | 0.00 | 0.00 | 70 | 1020.7 |
| 20260509195051 | 12 | 0 | 0.0 | 1.6 | 0.00 | 0.00 | 0.00 | 70 | 1020.8 |
| 20260509194558 | 12 | 0 | 0.0 | 1.6 | 0.00 | 0.00 | 0.00 | 70 | 1020.7 |
| 20260509194051 | 12 | 0 | 0.0 | 6.4 | 0.00 | 0.00 | 0.00 | 70 | 1020.8 |
| 20260509193550 | 12 | 87 | 0.0 | 6.4 | 0.00 | 0.00 | 0.00 | 69 | 1020.8 |
| 20260509193052 | 12 | 70 | 0.0 | 4.8 | 0.00 | 0.00 | 0.00 | 70 | 1020.8 |
| 20260509192550 | 12 | 0 | 0.0 | 4.8 | 0.00 | 0.00 | 0.00 | 70 | 1020.8 |
| 20260509192048 | 12 | 58 | 0.0 | 4.8 | 0.00 | 0.00 | 0.00 | 70 | 1020.7 |
| 20260509191551 | 12 | 87 | 0.0 | 4.8 | 0.00 | 0.00 | 0.00 | 71 | 1020.8 |
| 20260509191050 | 11 | 81 | 0.0 | 4.8 | 0.00 | 0.00 | 0.00 | 72 | 1020.8 |
| 20260509190552 | 11 | 76 | 0.0 | 3.2 | 0.00 | 0.00 | 0.00 | 75 | 1020.9 |
| 20260509190106 | 10 | 0 | 0.0 | 0.0 | 0.00 | 0.00 | 0.00 | 77 | 1020.8 |
| 20260509185552 | 10 | 0 | 0.0 | 0.0 | 0.00 | 0.00 | 0.00 | 78 | 1020.8 |
| 20260509185052 | 10 | 0 | 0.0 | 0.0 | 0.00 | 0.00 | 0.00 | 78 | 1020.8 |
| 20260509184554 | 10 | 0 | 0.0 | 0.0 | 0.00 | 0.00 | 0.00 | 77 | 1020.8 |
| 20260509184051 | 11 | 0 | 0.0 | 0.0 | 0.00 | 0.00 | 0.00 | 77 | 1020.9 |
| 20260509183551 | 11 | 0 | 0.0 | 0.0 | 0.00 | 0.00 | 0.00 | 77 | 1020.9 |
| 20260509183057 | 11 | 0 | 0.0 | 0.0 | 0.00 | 0.00 | 0.00 | 77 | 1020.8 |
| 20260509182550 | 11 | 0 | 0.0 | 0.0 | 0.00 | 0.00 | 0.00 | 77 | 1020.8 |
| 20260509182048 | 11 | 0 | 0.0 | 0.0 | 0.00 | 0.00 | 0.00 | 77 | 1020.7 |
| 20260509181559 | 11 | 0 | 0.0 | 0.0 | 0.00 | 0.00 | 0.00 | 76 | 1020.7 |
| 20260509181048 | 11 | 0 | 0.0 | 0.0 | 0.00 | 0.00 | 0.00 | 76 | 1020.7 |
| 20260509180552 | 11 | 0 | 0.0 | 0.0 | 0.00 | 0.00 | 0.00 | 76 | 1020.7 |
| 20260509180053 | 11 | 0 | 0.0 | 0.0 | 0.00 | 0.00 | 0.00 | 77 | 1020.7 |
| 20260509175551 | 11 | 0 | 0.0 | 0.0 | 0.00 | 0.00 | 0.00 | 76 | 1020.7 |
| 20260509175054 | 11 | 0 | 0.0 | 0.0 | 0.00 | 0.00 | 0.00 | 74 | 1020.7 |
| 20260509174553 | 11 | 0 | 0.0 | 0.0 | 0.00 | 0.00 | 0.00 | 75 | 1020.6 |
| 20260509174051 | 11 | 0 | 0.0 | 0.0 | 0.00 | 0.00 | 0.00 | 74 | 1020.6 |
| 20260509173551 | 11 | 0 | 0.0 | 0.0 | 0.00 | 0.00 | 0.00 | 74 | 1020.7 |
| 20260509173051 | 11 | 0 | 0.0 | 0.0 | 0.00 | 0.00 | 0.00 | 74 | 1020.7 |
| 20260509172548 | 11 | 0 | 0.0 | 0.0 | 0.00 | 0.00 | 0.00 | 74 | 1020.7 |
| 20260509172049 | 12 | 0 | 0.0 | 0.0 | 0.00 | 0.00 | 0.00 | 74 | 1020.7 |
| 20260509171554 | 12 | 0 | 0.0 | 0.0 | 0.00 | 0.00 | 0.00 | 73 | 1020.7 |
| 20260509171050 | 12 | 0 | 0.0 | 0.0 | 0.00 | 0.00 | 0.00 | 73 | 1020.5 |
| 20260509170548 | 12 | 0 | 0.0 | 0.0 | 0.00 | 0.00 | 0.00 | 73 | 1020.5 |
| 20260509170106 | 12 | 0 | 0.0 | 0.0 | 0.00 | 0.00 | 0.00 | 73 | 1020.4 |
| 20260509165551 | 12 | 0 | 0.0 | 0.0 | 0.00 | 0.00 | 0.00 | 73 | 1020.5 |
| 20260509165053 | 12 | 0 | 0.0 | 0.0 | 0.00 | 0.00 | 0.00 | 73 | 1020.4 |
| 20260509164557 | 12 | 0 | 0.0 | 0.0 | 0.00 | 0.00 | 0.00 | 73 | 1020.4 |
| 20260509164051 | 12 | 0 | 0.0 | 0.0 | 0.00 | 0.00 | 0.00 | 72 | 1020.4 |
| 20260509163551 | 12 | 0 | 0.0 | 0.0 | 0.00 | 0.00 | 0.00 | 71 | 1020.4 |
| 20260509163053 | 12 | 0 | 0.0 | 0.0 | 0.00 | 0.00 | 0.00 | 70 | 1020.4 |
| 20260509162552 | 13 | 0 | 0.0 | 0.0 | 0.00 | 0.00 | 0.00 | 70 | 1020.2 |
| 20260509162055 | 13 | 0 | 0.0 | 0.0 | 0.00 | 0.00 | 0.00 | 70 | 1020.2 |
| 20260509161600 | 13 | 0 | 0.0 | 0.0 | 0.00 | 0.00 | 0.00 | 69 | 1020.1 |
| 20260509161054 | 13 | 0 | 0.0 | 1.6 | 0.00 | 0.00 | 0.00 | 68 | 1020.1 |
| 20260509160554 | 13 | 0 | 0.0 | 1.6 | 0.00 | 0.00 | 0.00 | 68 | 1020.1 |
| 20260509160055 | 13 | 0 | 0.0 | 1.6 | 0.00 | 0.00 | 0.00 | 67 | 1020.1 |
| 20260509155554 | 14 | 0 | 0.0 | 3.2 | 0.00 | 0.00 | 0.00 | 67 | 1020.0 |
| 20260509155052 | 14 | 0 | 0.0 | 3.2 | 0.00 | 0.00 | 0.00 | 65 | 1020.1 |
| 20260509154558 | 14 | 95 | 0.0 | 3.2 | 0.00 | 0.00 | 0.00 | 65 | 1020.0 |
| 20260509154053 | 14 | 0 | 0.0 | 3.2 | 0.00 | 0.00 | 0.00 | 64 | 1020.2 |
| 20260509153553 | 14 | 0 | 0.0 | 4.8 | 0.00 | 0.00 | 0.00 | 64 | 1020.0 |
| 20260509153057 | 15 | 0 | 0.0 | 4.8 | 0.00 | 0.00 | 0.00 | 65 | 1020.0 |
| 20260509152553 | 15 | 0 | 0.0 | 4.8 | 0.00 | 0.00 | 0.00 | 63 | 1019.9 |
| 20260509152054 | 15 | 0 | 0.0 | 3.2 | 0.00 | 0.00 | 0.00 | 62 | 1019.9 |
| 20260509151552 | 15 | 0 | 0.0 | 3.2 | 0.00 | 0.00 | 0.00 | 62 | 1020.0 |
| 20260509151052 | 15 | 0 | 0.0 | 1.6 | 0.00 | 0.00 | 0.00 | 61 | 1019.9 |
| 20260509150552 | 16 | 0 | 0.0 | 1.6 | 0.00 | 0.00 | 0.00 | 61 | 1020.0 |
| 20260509150053 | 16 | 0 | 0.0 | 1.6 | 0.00 | 0.00 | 0.00 | 60 | 1020.0 |
| 20260509145553 | 16 | 0 | 0.0 | 4.8 | 0.00 | 0.00 | 0.00 | 59 | 1019.9 |
| 20260509145056 | 16 | 0 | 0.0 | 4.8 | 0.00 | 0.00 | 0.00 | 58 | 1019.9 |
| 20260509144556 | 16 | 103 | 0.0 | 4.8 | 0.00 | 0.00 | 0.00 | 57 | 1019.9 |
| 20260509144052 | 16 | 94 | 0.0 | 4.8 | 0.00 | 0.00 | 0.00 | 57 | 1019.9 |
| 20260509143553 | 17 | 0 | 0.0 | 4.8 | 0.00 | 0.00 | 0.00 | 56 | 1019.9 |
| 20260509143056 | 17 | 0 | 0.0 | 4.8 | 0.00 | 0.00 | 0.00 | 56 | 1019.9 |
| 20260509142554 | 17 | 0 | 0.0 | 6.4 | 0.00 | 0.00 | 0.00 | 55 | 1019.8 |
| 20260509142057 | 17 | 0 | 0.0 | 8.0 | 0.00 | 0.00 | 0.00 | 55 | 1019.8 |
| 20260509141553 | 17 | 0 | 1.6 | 8.0 | 0.00 | 0.00 | 0.00 | 53 | 1019.8 |
| 20260509141053 | 17 | 105 | 0.0 | 6.4 | 0.00 | 0.00 | 0.00 | 53 | 1019.8 |
| 20260509140552 | 18 | 96 | 1.6 | 8.0 | 0.00 | 0.00 | 0.00 | 53 | 1019.9 |
| 20260509135553 | 18 | 0 | 0.0 | 8.0 | 0.00 | 0.00 | 0.00 | 54 | 1019.8 |
| 20260509135051 | 18 | 75 | 0.0 | 11.3 | 0.00 | 0.00 | 0.00 | 52 | 1019.8 |
| 20260509134625 | 18 | 345 | 1.6 | 11.3 | 0.00 | 0.00 | 0.00 | 52 | 1019.8 |
| 20260509134056 | 18 | 59 | 1.6 | 4.8 | 0.00 | 0.00 | 0.00 | 51 | 1019.8 |
| 20260509133554 | 18 | 131 | 1.6 | 9.7 | 0.00 | 0.00 | 0.00 | 51 | 1019.9 |
| 20260509133058 | 18 | 65 | 0.0 | 9.7 | 0.00 | 0.00 | 0.00 | 51 | 1019.8 |
| 20260509132553 | 18 | 347 | 1.6 | 9.7 | 0.00 | 0.00 | 0.00 | 50 | 1019.9 |
| 20260509132052 | 18 | 115 | 1.6 | 8.0 | 0.00 | 0.00 | 0.00 | 49 | 1019.9 |
| 20260509131555 | 18 | 99 | 1.6 | 8.0 | 0.00 | 0.00 | 0.00 | 51 | 1019.8 |
| 20260509131050 | 18 | 0 | 1.6 | 11.3 | 0.00 | 0.00 | 0.00 | 51 | 1019.9 |
| 20260509130549 | 18 | 108 | 1.6 | 11.3 | 0.00 | 0.00 | 0.00 | 49 | 1020.0 |
| 20260509130111 | 19 | 53 | 1.6 | 11.3 | 0.00 | 0.00 | 0.00 | 50 | 1020.0 |
| 20260509125547 | 18 | 23 | 1.6 | 11.3 | 0.00 | 0.00 | 0.00 | 50 | 1019.9 |
| 20260509125049 | 19 | 121 | 3.2 | 11.3 | 0.00 | 0.00 | 0.00 | 51 | 1020.0 |
| 20260509124608 | 18 | 23 | 0.0 | 14.5 | 0.00 | 0.00 | 0.00 | 51 | 1020.1 |
| 20260509124051 | 18 | 79 | 3.2 | 14.5 | 0.00 | 0.00 | 0.00 | 50 | 1020.0 |
| 20260509123549 | 18 | 349 | 3.2 | 14.5 | 0.00 | 0.00 | 0.00 | 49 | 1020.1 |
| 20260509123105 | 19 | 41 | 1.6 | 14.5 | 0.00 | 0.00 | 0.00 | 49 | 1020.1 |
| 20260509122551 | 19 | 342 | 1.6 | 8.0 | 0.00 | 0.00 | 0.00 | 50 | 1020.0 |
| 20260509122048 | 18 | 28 | 1.6 | 6.4 | 0.00 | 0.00 | 0.00 | 50 | 1020.2 |
| 20260509121557 | 18 | 318 | 0.0 | 8.0 | 0.00 | 0.00 | 0.00 | 52 | 1020.2 |
| 20260509121052 | 18 | 103 | 1.6 | 8.0 | 0.00 | 0.00 | 0.00 | 52 | 1020.2 |
| 20260509120552 | 18 | 131 | 1.6 | 8.0 | 0.00 | 0.00 | 0.00 | 52 | 1020.3 |
| 20260509120104 | 18 | 209 | 3.2 | 12.9 | 0.00 | 0.00 | 0.00 | 51 | 1020.3 |
| 20260509115548 | 18 | 197 | 1.6 | 12.9 | 0.00 | 0.00 | 0.00 | 52 | 1020.4 |
| 20260509115052 | 18 | 75 | 1.6 | 12.9 | 0.00 | 0.00 | 0.00 | 52 | 1020.5 |
| 20260509114613 | 18 | 36 | 1.6 | 8.0 | 0.00 | 0.00 | 0.00 | 51 | 1020.4 |
| 20260509114048 | 18 | 94 | 1.6 | 8.0 | 0.00 | 0.00 | 0.00 | 52 | 1020.5 |
| 20260509113552 | 18 | 34 | 0.0 | 6.4 | 0.00 | 0.00 | 0.00 | 52 | 1020.7 |
| 20260509113100 | 18 | 79 | 1.6 | 12.9 | 0.00 | 0.00 | 0.00 | 53 | 1020.7 |
| 20260509112552 | 18 | 12 | 1.6 | 12.9 | 0.00 | 0.00 | 0.00 | 53 | 1020.6 |
| 20260509112052 | 18 | 56 | 3.2 | 9.7 | 0.00 | 0.00 | 0.00 | 52 | 1020.6 |
| 20260509111557 | 18 | 348 | 1.6 | 6.4 | 0.00 | 0.00 | 0.00 | 52 | 1020.9 |
| 20260509111052 | 18 | 78 | 1.6 | 9.7 | 0.00 | 0.00 | 0.00 | 51 | 1020.9 |
| 20260509110553 | 18 | 22 | 1.6 | 9.7 | 0.00 | 0.00 | 0.00 | 52 | 1020.9 |
| 20260509110055 | 17 | 24 | 1.6 | 9.7 | 0.00 | 0.00 | 0.00 | 52 | 1021.1 |
| 20260509105548 | 17 | 326 | 1.6 | 9.7 | 0.00 | 0.00 | 0.00 | 51 | 1021.1 |
| 20260509105052 | 17 | 75 | 3.2 | 9.7 | 0.00 | 0.00 | 0.00 | 51 | 1021.1 |
| 20260509104552 | 17 | 71 | 1.6 | 6.4 | 0.00 | 0.00 | 0.00 | 52 | 1021.3 |
| 20260509104051 | 17 | 96 | 0.0 | 8.0 | 0.00 | 0.00 | 0.00 | 53 | 1021.4 |
| 20260509103551 | 17 | 0 | 1.6 | 8.0 | 0.00 | 0.00 | 0.00 | 52 | 1021.4 |
| 20260509103057 | 17 | 63 | 0.0 | 11.3 | 0.00 | 0.00 | 0.00 | 53 | 1021.5 |
| 20260509102550 | 17 | 347 | 1.6 | 11.3 | 0.00 | 0.00 | 0.00 | 54 | 1021.6 |
| 20260509102049 | 17 | 61 | 0.0 | 9.7 | 0.00 | 0.00 | 0.00 | 54 | 1021.6 |
| 20260509101554 | 17 | 329 | 0.0 | 9.7 | 0.00 | 0.00 | 0.00 | 55 | 1021.6 |
| 20260509101049 | 16 | 93 | 3.2 | 11.3 | 0.00 | 0.00 | 0.00 | 55 | 1021.9 |
| 20260509100552 | 16 | 36 | 1.6 | 11.3 | 0.00 | 0.00 | 0.00 | 55 | 1022.0 |
| 20260509100054 | 16 | 51 | 1.6 | 11.3 | 0.00 | 0.00 | 0.00 | 56 | 1022.1 |
| 20260509095551 | 16 | 63 | 3.2 | 11.3 | 0.00 | 0.00 | 0.00 | 55 | 1022.2 |
| 20260509095051 | 16 | 0 | 3.2 | 8.0 | 0.00 | 0.00 | 0.00 | 55 | 1022.3 |
| 20260509094556 | 16 | 331 | 0.0 | 11.3 | 0.00 | 0.00 | 0.00 | 55 | 1022.4 |
| 20260509094052 | 16 | 36 | 1.6 | 11.3 | 0.00 | 0.00 | 0.00 | 55 | 1022.4 |
| 20260509093552 | 16 | 176 | 1.6 | 9.7 | 0.00 | 0.00 | 0.00 | 56 | 1022.5 |
| 20260509093058 | 16 | 33 | 1.6 | 9.7 | 0.00 | 0.00 | 0.00 | 56 | 1022.7 |
| 20260509092550 | 16 | 56 | 1.6 | 9.7 | 0.00 | 0.00 | 0.00 | 55 | 1022.6 |
| 20260509092049 | 16 | 52 | 3.2 | 9.7 | 0.00 | 0.00 | 0.00 | 56 | 1022.7 |
| 20260509091556 | 16 | 203 | 1.6 | 11.3 | 0.00 | 0.00 | 0.00 | 55 | 1022.7 |
| 20260509091053 | 15 | 93 | 3.2 | 11.3 | 0.00 | 0.00 | 0.00 | 55 | 1022.8 |
| 20260509090549 | 15 | 49 | 3.2 | 6.4 | 0.00 | 0.00 | 0.00 | 55 | 1022.8 |
| 20260509090050 | 16 | 19 | 1.6 | 8.0 | 0.00 | 0.00 | 0.00 | 55 | 1022.8 |
| 20260509085549 | 15 | 0 | 1.6 | 8.0 | 0.00 | 0.00 | 0.00 | 55 | 1022.9 |
| 20260509085052 | 15 | 360 | 1.6 | 8.0 | 0.00 | 0.00 | 0.00 | 55 | 1022.9 |
| 20260509084554 | 15 | 218 | 1.6 | 8.0 | 0.00 | 0.00 | 0.00 | 57 | 1022.9 |
| 20260509084049 | 15 | 0 | 1.6 | 6.4 | 0.00 | 0.00 | 0.00 | 56 | 1022.9 |
| 20260509083548 | 15 | 115 | 1.6 | 8.0 | 0.00 | 0.00 | 0.00 | 57 | 1023.0 |
| 20260509083055 | 15 | 46 | 1.6 | 8.0 | 0.00 | 0.00 | 0.00 | 57 | 1023.1 |
| 20260509082551 | 15 | 103 | 1.6 | 6.4 | 0.00 | 0.00 | 0.00 | 57 | 1023.0 |
| 20260509082050 | 15 | 323 | 0.0 | 6.4 | 0.00 | 0.00 | 0.00 | 57 | 1023.2 |
| 20260509081552 | 14 | 50 | 1.6 | 6.4 | 0.00 | 0.00 | 0.00 | 57 | 1023.1 |
| 20260509081052 | 14 | 96 | 1.6 | 6.4 | 0.00 | 0.00 | 0.00 | 57 | 1023.2 |
| 20260509080552 | 14 | 95 | 1.6 | 6.4 | 0.00 | 0.00 | 0.00 | 58 | 1023.1 |
| 20260509080051 | 14 | 0 | 1.6 | 9.7 | 0.00 | 0.00 | 0.00 | 59 | 1023.3 |
| 20260509075549 | 14 | 148 | 1.6 | 9.7 | 0.00 | 0.00 | 0.00 | 60 | 1023.3 |
| 20260509075050 | 14 | 357 | 1.6 | 8.0 | 0.00 | 0.00 | 0.00 | 59 | 1023.3 |
| 20260509074603 | 14 | 86 | 0.0 | 8.0 | 0.00 | 0.00 | 0.00 | 59 | 1023.3 |
| 20260509074051 | 14 | 71 | 0.0 | 6.4 | 0.00 | 0.00 | 0.00 | 60 | 1023.3 |
| 20260509073549 | 14 | 20 | 1.6 | 6.4 | 0.00 | 0.00 | 0.00 | 60 | 1023.3 |
| 20260509073100 | 13 | 60 | 0.0 | 4.8 | 0.00 | 0.00 | 0.00 | 61 | 1023.2 |
| 20260509072551 | 13 | 105 | 1.6 | 4.8 | 0.00 | 0.00 | 0.00 | 62 | 1023.2 |
| 20260509072052 | 13 | 62 | 0.0 | 4.8 | 0.00 | 0.00 | 0.00 | 61 | 1023.2 |
| 20260509071559 | 13 | 0 | 0.0 | 3.2 | 0.00 | 0.00 | 0.00 | 63 | 1023.1 |
| 20260509071050 | 13 | 0 | 0.0 | 4.8 | 0.00 | 0.00 | 0.00 | 62 | 1023.1 |
| 20260509070552 | 13 | 66 | 0.0 | 4.8 | 0.00 | 0.00 | 0.00 | 63 | 1023.1 |
| 20260509070055 | 13 | 85 | 1.6 | 4.8 | 0.00 | 0.00 | 0.00 | 62 | 1023.0 |
| 20260509065552 | 13 | 103 | 0.0 | 4.8 | 0.00 | 0.00 | 0.00 | 63 | 1023.1 |
| 20260509065051 | 13 | 113 | 0.0 | 4.8 | 0.00 | 0.00 | 0.00 | 62 | 1022.9 |
| 20260509064601 | 13 | 0 | 0.0 | 1.6 | 0.00 | 0.00 | 0.00 | 64 | 1022.6 |
| 20260509064050 | 13 | 103 | 0.0 | 1.6 | 0.00 | 0.00 | 0.00 | 63 | 1022.7 |
| 20260509063549 | 13 | 0 | 0.0 | 1.6 | 0.00 | 0.00 | 0.00 | 64 | 1022.6 |
| 20260509063053 | 13 | 0 | 0.0 | 1.6 | 0.00 | 0.00 | 0.00 | 64 | 1022.5 |
| 20260509062551 | 12 | 56 | 0.0 | 1.6 | 0.00 | 0.00 | 0.00 | 65 | 1022.5 |
| 20260509062051 | 12 | 0 | 0.0 | 1.6 | 0.00 | 0.00 | 0.00 | 65 | 1022.4 |
| 20260509061622 | 12 | 0 | 0.0 | 0.0 | 0.00 | 0.00 | 0.00 | 66 | 1022.5 |